Time;durP1;ratioP1;P1;durP2;ratioP2;P2;SDS_P1;SDS_P2;PMS_P1;PMS_P2;Temp;Humidity;BMP_temperature;BMP_pressure;BME280_temperature;BME280_humidity;BME280_pressure;Samples;Min_cycle;Max_cycle;Signal;HPM_P1;HPM_P2
2021/09/29 00:01:55;;;;;;;11.82;5.85;;;;;;;11.10;100.00;101294.38;4926795;29;20106;-85
2021/09/29 00:04:20;;;;;;;13.02;6.00;;;;;;;11.10;100.00;101292.53;4926355;29;20051;-84
2021/09/29 00:06:46;;;;;;;14.05;6.55;;;;;;;11.10;100.00;101286.31;4929347;29;20383;-83
2021/09/29 00:09:11;;;;;;;13.20;5.82;;;;;;;11.07;100.00;101285.63;4927539;29;20059;-84
2021/09/29 00:11:36;;;;;;;11.77;6.25;;;;;;;11.05;100.00;101287.66;4925123;29;20102;-84
2021/09/29 00:14:02;;;;;;;12.82;6.88;;;;;;;11.04;100.00;101283.25;4923214;29;20521;-84
2021/09/29 00:16:27;;;;;;;11.23;6.50;;;;;;;11.03;100.00;101281.56;4929607;28;20053;-84
2021/09/29 00:18:53;;;;;;;16.05;7.45;;;;;;;10.99;100.00;101274.84;4927882;29;20489;-84
2021/09/29 00:21:18;;;;;;;17.60;6.82;;;;;;;11.02;100.00;101265.63;4928045;29;20062;-83
2021/09/29 00:23:44;;;;;;;14.43;6.40;;;;;;;11.00;100.00;101256.88;4928365;28;20048;-84
2021/09/29 00:26:09;;;;;;;11.32;6.88;;;;;;;11.01;100.00;101256.72;4926058;29;20588;-85
2021/09/29 00:28:34;;;;;;;10.85;6.05;;;;;;;11.02;100.00;101260.28;4929853;28;20232;-84
2021/09/29 00:31:05;;;;;;;12.10;6.70;;;;;;;11.00;100.00;101251.50;4925240;29;20140;-83
2021/09/29 00:33:34;;;;;;;13.30;6.55;;;;;;;10.99;100.00;101261.41;4925776;29;20048;-83
2021/09/29 00:35:59;;;;;;;11.88;6.65;;;;;;;10.97;100.00;101249.97;4927973;29;20091;-85
2021/09/29 00:38:25;;;;;;;13.00;6.45;;;;;;;10.98;100.00;101245.44;4925051;29;20063;-83
2021/09/29 00:40:51;;;;;;;11.20;6.47;;;;;;;10.99;100.00;101248.00;4925525;29;20047;-84
2021/09/29 00:43:17;;;;;;;11.50;5.90;;;;;;;10.95;100.00;101235.03;4926152;29;20063;-84
2021/09/29 00:45:42;;;;;;;12.88;6.22;;;;;;;10.98;100.00;101245.44;4923620;29;20047;-83
2021/09/29 00:48:08;;;;;;;12.48;5.82;;;;;;;10.98;100.00;101232.84;4924590;29;20068;-85
2021/09/29 00:50:36;;;;;;;8.88;6.15;;;;;;;10.97;100.00;101236.56;4924477;29;20079;-84
2021/09/29 00:53:03;;;;;;;11.73;5.88;;;;;;;10.96;100.00;101229.50;4924689;29;20109;-83
2021/09/29 00:55:28;;;;;;;10.30;5.60;;;;;;;10.94;100.00;101223.44;4926303;28;20514;-85
2021/09/29 00:57:54;;;;;;;10.80;5.90;;;;;;;10.95;100.00;101225.13;4923814;29;20056;-83
2021/09/29 01:00:20;;;;;;;10.60;6.00;;;;;;;10.93;100.00;101220.91;4924822;28;22111;-84
2021/09/29 01:02:46;;;;;;;10.95;5.60;;;;;;;10.95;100.00;101226.97;4925772;29;20044;-84
2021/09/29 01:05:12;;;;;;;9.27;5.68;;;;;;;10.95;100.00;101219.75;4925896;29;20058;-83
2021/09/29 01:07:47;;;;;;;12.45;6.03;;;;;;;10.93;100.00;101216.38;4928637;29;20056;-84
2021/09/29 01:10:36;;;;;;;13.77;6.45;;;;;;;10.95;100.00;101214.38;4922870;29;20047;-85
2021/09/29 01:13:10;;;;;;;14.18;6.22;;;;;;;10.90;100.00;101205.94;4905256;29;20143;-84
2021/09/29 01:15:47;;;;;;;10.10;5.82;;;;;;;10.87;100.00;101208.09;4924869;29;20475;-84
2021/09/29 01:18:15;;;;;;;12.57;5.93;;;;;;;10.86;100.00;101203.75;4924096;29;20052;-83
2021/09/29 01:21:08;;;;;;;10.85;5.93;;;;;;;10.87;100.00;101200.88;4926433;28;20173;-83
2021/09/29 01:23:42;;;;;;;10.80;5.90;;;;;;;10.82;100.00;101193.31;4920722;28;20100;-84
2021/09/29 01:26:27;;;;;;;13.77;6.13;;;;;;;10.80;100.00;101195.31;4936694;28;20051;-84
2021/09/29 01:28:57;;;;;;;11.25;6.20;;;;;;;10.77;100.00;101189.41;4934589;28;20051;-84
2021/09/29 01:31:23;;;;;;;11.48;5.88;;;;;;;10.76;100.00;101176.97;4935849;28;20133;-84
2021/09/29 01:33:51;;;;;;;12.88;5.88;;;;;;;10.76;100.00;101177.84;4933137;28;20083;-84
2021/09/29 01:36:18;;;;;;;12.40;6.95;;;;;;;10.77;100.00;101176.00;4944492;28;20438;-84
2021/09/29 01:38:47;;;;;;;11.35;6.80;;;;;;;10.79;100.00;101165.94;4938069;28;20058;-84
2021/09/29 01:41:12;;;;;;;12.60;6.75;;;;;;;10.74;100.00;101158.34;4935944;28;20058;-84
2021/09/29 01:43:38;;;;;;;8.57;6.05;;;;;;;10.75;100.00;101164.56;4944165;28;20248;-85
2021/09/29 01:46:06;;;;;;;14.90;6.80;;;;;;;10.78;100.00;101148.13;4942380;28;20087;-84
2021/09/29 01:48:32;;;;;;;12.32;6.93;;;;;;;10.76;100.00;101151.00;4933705;28;20043;-84
2021/09/29 01:51:00;;;;;;;12.05;6.60;;;;;;;10.77;100.00;101141.09;4936563;28;20071;-84
2021/09/29 01:53:31;;;;;;;11.93;6.47;;;;;;;10.74;100.00;101139.56;4929705;28;20048;-84
2021/09/29 01:55:58;;;;;;;10.73;6.30;;;;;;;10.75;100.00;101135.88;4915857;28;20055;-85
2021/09/29 01:58:23;;;;;;;14.50;6.05;;;;;;;10.77;100.00;101133.03;4924540;28;20075;-83
2021/09/29 02:00:48;;;;;;;13.55;5.57;;;;;;;10.77;100.00;101136.56;4932564;28;20102;-86
2021/09/29 02:03:20;;;;;;;11.02;5.97;;;;;;;10.80;100.00;101125.50;4916226;29;20056;-83
2021/09/29 02:05:49;;;;;;;10.63;6.20;;;;;;;10.83;100.00;101119.81;4932410;28;21443;-84
2021/09/29 02:08:15;;;;;;;15.70;6.70;;;;;;;10.83;100.00;101117.13;4941948;28;20550;-86
2021/09/29 02:10:41;;;;;;;11.30;6.03;;;;;;;10.83;100.00;101113.63;4934126;28;20206;-84
2021/09/29 02:13:06;;;;;;;11.43;5.38;;;;;;;10.85;100.00;101114.31;4935368;28;20134;-84
2021/09/29 02:15:31;;;;;;;11.90;5.40;;;;;;;10.84;100.00;101107.22;4939485;28;20133;-86
2021/09/29 02:17:57;;;;;;;9.73;6.03;;;;;;;10.81;100.00;101111.06;4936125;28;20062;-85
2021/09/29 02:20:22;;;;;;;12.55;6.10;;;;;;;10.84;100.00;101115.28;4932723;28;20147;-85
2021/09/29 02:22:49;;;;;;;16.23;5.97;;;;;;;10.81;100.00;101105.69;4932952;28;20051;-84
2021/09/29 02:25:14;;;;;;;10.65;5.90;;;;;;;10.83;100.00;101102.88;4935367;28;20109;-84
2021/09/29 02:27:40;;;;;;;9.80;5.70;;;;;;;10.84;100.00;101094.66;4935442;28;20051;-85
2021/09/29 02:30:08;;;;;;;12.73;6.30;;;;;;;10.82;100.00;101098.53;4932928;28;20063;-84
2021/09/29 02:32:34;;;;;;;11.63;6.30;;;;;;;10.80;100.00;101095.13;4932109;28;20052;-84
2021/09/29 02:35:00;;;;;;;12.65;5.55;;;;;;;10.79;100.00;101093.47;4934802;28;20047;-84
2021/09/29 02:37:25;;;;;;;10.15;6.13;;;;;;;10.80;100.00;101095.13;4933002;28;20291;-84
2021/09/29 02:39:51;;;;;;;13.43;5.90;;;;;;;10.79;100.00;101090.78;4939507;28;20489;-84
2021/09/29 02:42:16;;;;;;;12.73;6.35;;;;;;;10.82;100.00;101091.31;4938915;28;20162;-84
2021/09/29 02:44:42;;;;;;;12.48;5.95;;;;;;;10.82;100.00;101090.47;4938854;28;20118;-85
2021/09/29 02:47:07;;;;;;;10.45;6.05;;;;;;;10.84;100.00;101086.59;4937541;28;20075;-84
2021/09/29 02:49:32;;;;;;;12.18;6.18;;;;;;;10.84;100.00;101083.06;4933951;28;20052;-84
2021/09/29 02:51:58;;;;;;;9.00;5.85;;;;;;;10.85;100.00;101079.41;4942298;28;20045;-84
2021/09/29 02:54:23;;;;;;;11.50;6.10;;;;;;;10.84;100.00;101077.69;4944549;28;20051;-83
2021/09/29 02:56:49;;;;;;;12.93;5.72;;;;;;;10.84;100.00;101081.22;4946223;28;20070;-84
2021/09/29 02:59:14;;;;;;;9.93;5.43;;;;;;;10.87;100.00;101081.91;4947925;28;20090;-84
2021/09/29 03:01:40;;;;;;;13.13;6.00;;;;;;;10.86;100.00;101075.72;4946739;28;20047;-86
2021/09/29 03:04:07;;;;;;;12.23;5.40;;;;;;;10.89;100.00;101071.88;4950145;28;20051;-85
2021/09/29 03:06:32;;;;;;;11.20;5.55;;;;;;;10.89;100.00;101075.38;4944853;28;20047;-85
2021/09/29 03:08:58;;;;;;;10.95;5.78;;;;;;;10.91;100.00;101068.03;4946275;28;20517;-84
2021/09/29 03:11:23;;;;;;;10.13;4.93;;;;;;;10.87;100.00;101063.97;4946231;28;20474;-84
2021/09/29 03:13:49;;;;;;;9.77;4.75;;;;;;;10.93;100.00;101063.31;4940544;28;20482;-84
2021/09/29 03:16:15;;;;;;;12.30;5.70;;;;;;;10.96;100.00;101054.97;4937694;28;20059;-84
2021/09/29 03:18:41;;;;;;;13.70;5.97;;;;;;;10.98;100.00;101063.69;4934500;28;20062;-84
2021/09/29 03:21:07;;;;;;;9.77;5.47;;;;;;;11.01;100.00;101057.16;4926266;29;20071;-84
2021/09/29 03:23:32;;;;;;;11.70;5.80;;;;;;;11.04;100.00;101060.34;4926872;29;20676;-83
2021/09/29 03:25:58;;;;;;;10.65;5.15;;;;;;;11.06;100.00;101058.34;4927360;29;20344;-84
2021/09/29 03:28:23;;;;;;;11.13;4.90;;;;;;;11.07;100.00;101056.50;4941282;28;20102;-83
2021/09/29 03:30:49;;;;;;;11.48;5.22;;;;;;;11.06;100.00;101052.16;4939184;28;20055;-85
2021/09/29 03:33:15;;;;;;;11.48;5.20;;;;;;;11.10;99.64;101045.44;4940710;28;20059;-84
2021/09/29 03:35:40;;;;;;;9.90;4.93;;;;;;;11.13;99.43;101049.66;4939795;28;20047;-84
2021/09/29 03:38:05;;;;;;;9.02;4.97;;;;;;;11.13;99.49;101044.28;4942433;28;20071;-85
2021/09/29 03:40:31;;;;;;;11.75;5.38;;;;;;;11.13;99.33;101033.53;4933578;28;20075;-84
2021/09/29 03:42:57;;;;;;;9.85;4.90;;;;;;;11.10;99.39;101044.59;4937000;28;21418;-85
2021/09/29 03:45:22;;;;;;;10.30;5.07;;;;;;;11.10;99.48;101039.22;4945713;28;20078;-86
2021/09/29 03:47:47;;;;;;;9.82;4.80;;;;;;;11.14;99.33;101040.63;4928451;29;20118;-85
2021/09/29 03:50:13;;;;;;;12.27;5.15;;;;;;;11.13;99.19;101034.38;4928192;29;20068;-85
2021/09/29 03:52:39;;;;;;;11.43;5.38;;;;;;;11.14;99.03;101035.25;4937133;28;20063;-84
2021/09/29 03:55:06;;;;;;;11.02;5.05;;;;;;;11.13;99.02;101030.84;4945159;28;20509;-84
2021/09/29 03:57:34;;;;;;;15.55;5.43;;;;;;;11.13;99.13;101033.53;4961229;28;20090;-84
2021/09/29 03:59:59;;;;;;;10.35;5.50;;;;;;;11.10;98.96;101023.13;4945335;28;20054;-84
2021/09/29 04:02:25;;;;;;;12.00;5.18;;;;;;;11.08;99.34;101028.66;4948592;28;20044;-84
2021/09/29 04:04:50;;;;;;;11.98;4.85;;;;;;;11.05;99.50;101016.41;4947367;28;20070;-84
2021/09/29 04:07:15;;;;;;;10.40;5.60;;;;;;;11.02;99.62;101016.72;4944151;28;20043;-83
2021/09/29 04:09:41;;;;;;;11.98;5.80;;;;;;;11.01;99.60;101017.72;4934738;28;20066;-87
2021/09/29 04:12:07;;;;;;;12.13;4.78;;;;;;;10.96;99.97;101006.63;4937564;28;20111;-83
2021/09/29 04:14:33;;;;;;;9.32;5.45;;;;;;;10.92;100.00;101010.63;4940285;28;20156;-84
2021/09/29 04:16:59;;;;;;;12.32;5.70;;;;;;;10.88;100.00;100998.53;4936652;28;20062;-83
2021/09/29 04:19:24;;;;;;;12.90;6.07;;;;;;;10.86;100.00;101003.22;4934364;28;20051;-84
2021/09/29 04:21:49;;;;;;;10.40;5.50;;;;;;;10.83;100.00;101000.84;4940540;28;20056;-88
2021/09/29 04:24:15;;;;;;;10.57;6.28;;;;;;;10.81;100.00;100997.50;4928746;28;20110;-83
2021/09/29 04:26:41;;;;;;;12.00;6.78;;;;;;;10.78;100.00;100998.66;4937217;28;20127;-87
2021/09/29 04:29:07;;;;;;;13.60;6.63;;;;;;;10.79;100.00;100992.28;4926404;28;20063;-85
2021/09/29 04:31:32;;;;;;;12.90;6.57;;;;;;;10.72;100.00;100995.78;4936431;28;20098;-84
2021/09/29 04:33:58;;;;;;;11.77;6.25;;;;;;;10.74;100.00;100994.63;4935353;28;20569;-86
2021/09/29 04:36:23;;;;;;;12.63;6.60;;;;;;;10.77;100.00;100988.91;4934925;28;20051;-88
2021/09/29 04:38:49;;;;;;;10.80;6.43;;;;;;;10.78;100.00;100987.06;4932583;28;20047;-84
2021/09/29 04:41:15;;;;;;;10.88;6.38;;;;;;;10.80;100.00;100990.44;4938089;28;20553;-86
2021/09/29 04:43:40;;;;;;;12.30;6.40;;;;;;;10.79;100.00;100991.47;4941441;28;20483;-83
2021/09/29 04:46:06;;;;;;;12.48;6.20;;;;;;;10.76;100.00;100992.63;4936061;28;20062;-85
2021/09/29 04:48:31;;;;;;;9.27;6.53;;;;;;;10.76;100.00;100978.31;4934733;28;20043;-88
2021/09/29 04:50:57;;;;;;;13.20;6.53;;;;;;;10.78;100.00;100982.53;4935490;28;20102;-84
2021/09/29 04:53:22;;;;;;;14.60;7.00;;;;;;;10.78;100.00;100979.03;4933781;28;20032;-84
2021/09/29 04:55:47;;;;;;;13.57;7.22;;;;;;;10.77;100.00;100969.28;4934491;28;20070;-84
2021/09/29 04:58:13;;;;;;;13.77;7.75;;;;;;;10.74;100.00;100975.00;4936658;28;20086;-87
2021/09/29 05:00:38;;;;;;;14.95;7.40;;;;;;;10.69;100.00;100966.56;4937799;28;20066;-83
2021/09/29 05:03:07;;;;;;;14.65;8.00;;;;;;;10.71;100.00;100967.25;4934642;28;20526;-84
2021/09/29 05:05:34;;;;;;;18.08;7.85;;;;;;;10.69;100.00;100977.31;4924182;29;20255;-84
2021/09/29 05:08:01;;;;;;;13.27;7.43;;;;;;;10.70;100.00;100970.94;4936322;28;20070;-84
2021/09/29 05:11:02;;;;;;;14.38;7.32;;;;;;;10.67;100.00;100964.03;4937511;28;20457;-84
2021/09/29 05:13:32;;;;;;;16.80;7.47;;;;;;;10.70;100.00;100962.88;4925971;28;20055;-83
2021/09/29 05:15:59;;;;;;;11.63;7.25;;;;;;;10.67;100.00;100963.19;4945219;28;20063;-84
2021/09/29 05:18:25;;;;;;;13.38;7.75;;;;;;;10.69;100.00;100963.88;4937221;28;20051;-84
2021/09/29 05:20:52;;;;;;;12.00;7.22;;;;;;;10.71;100.00;100954.69;4930548;28;20421;-84
2021/09/29 05:23:18;;;;;;;9.85;6.55;;;;;;;10.68;100.00;100951.47;4943722;28;20048;-83
2021/09/29 05:25:43;;;;;;;13.38;7.60;;;;;;;10.69;100.00;100951.31;4944278;28;20125;-84
2021/09/29 05:28:12;;;;;;;12.95;6.95;;;;;;;10.66;100.00;100957.00;4943166;28;20154;-86
2021/09/29 05:30:38;;;;;;;15.30;6.82;;;;;;;10.71;100.00;100943.09;4944545;28;20477;-84
2021/09/29 05:33:05;;;;;;;13.70;6.45;;;;;;;10.76;100.00;100956.84;4952495;28;20047;-84
2021/09/29 05:35:30;;;;;;;14.73;6.93;;;;;;;10.78;100.00;100947.66;4946984;28;20043;-84
2021/09/29 05:37:56;;;;;;;15.27;7.03;;;;;;;10.82;100.00;100948.19;4945164;28;20114;-83
2021/09/29 05:40:22;;;;;;;12.50;6.75;;;;;;;10.81;100.00;100939.25;4945956;28;20061;-86
2021/09/29 05:42:47;;;;;;;12.15;7.78;;;;;;;10.81;100.00;100943.78;4940982;28;20914;-86
2021/09/29 05:45:14;;;;;;;14.90;7.05;;;;;;;10.85;100.00;100939.81;4943433;28;20601;-86
2021/09/29 05:47:39;;;;;;;12.90;7.07;;;;;;;10.84;100.00;100932.72;4943819;28;20043;-84
2021/09/29 05:50:07;;;;;;;15.50;7.05;;;;;;;10.88;100.00;100931.41;4943983;28;20051;-85
2021/09/29 05:52:32;;;;;;;12.40;6.60;;;;;;;10.92;100.00;100932.75;4945349;28;20691;-84
2021/09/29 05:54:58;;;;;;;10.82;6.65;;;;;;;10.93;100.00;100930.91;4936268;28;20062;-84
2021/09/29 05:57:23;;;;;;;11.52;6.30;;;;;;;10.99;99.83;100928.44;4941094;28;20052;-84
2021/09/29 05:59:50;;;;;;;12.88;6.28;;;;;;;11.00;99.98;100932.78;4934523;28;20051;-86
2021/09/29 06:02:16;;;;;;;14.18;6.53;;;;;;;11.04;99.68;100928.75;4917768;28;20063;-84
2021/09/29 06:04:41;;;;;;;11.52;6.20;;;;;;;11.12;99.17;100927.13;4945830;28;20490;-86
2021/09/29 06:07:10;;;;;;;18.70;6.20;;;;;;;11.17;99.08;100932.84;4942061;28;20066;-85
2021/09/29 06:09:39;;;;;;;12.75;6.22;;;;;;;11.19;98.96;100920.94;4943938;28;20050;-84
2021/09/29 06:12:05;;;;;;;9.63;6.43;;;;;;;11.25;98.57;100930.19;4944228;28;20043;-85
2021/09/29 06:14:31;;;;;;;11.55;5.80;;;;;;;11.33;98.42;100926.66;4949140;28;20063;-84
2021/09/29 06:17:10;;;;;;;15.15;6.20;;;;;;;11.35;98.32;100928.16;4963127;28;20587;-87
2021/09/29 06:19:36;;;;;;;9.48;6.07;;;;;;;11.41;98.14;100926.66;4945301;28;20051;-86
2021/09/29 06:22:02;;;;;;;8.07;5.63;;;;;;;11.46;97.58;100924.31;4947468;28;20561;-84
2021/09/29 06:24:27;;;;;;;10.93;5.82;;;;;;;11.51;97.39;100930.03;4936618;28;20052;-86
2021/09/29 06:26:54;;;;;;;9.93;5.40;;;;;;;11.55;97.05;100930.53;4935036;28;20516;-84
2021/09/29 06:29:19;;;;;;;10.95;5.78;;;;;;;11.63;96.85;100919.78;4935989;28;20113;-84
2021/09/29 06:31:44;;;;;;;14.23;6.00;;;;;;;11.63;97.02;100923.31;4938367;28;20074;-84
2021/09/29 06:34:10;;;;;;;9.68;5.90;;;;;;;11.63;97.01;100923.31;4942003;28;20465;-85
2021/09/29 06:36:35;;;;;;;10.05;5.75;;;;;;;11.71;96.59;100919.81;4944886;28;20088;-83
2021/09/29 06:39:01;;;;;;;11.30;5.57;;;;;;;11.72;96.61;100924.16;4941028;28;20075;-85
2021/09/29 06:41:26;;;;;;;13.35;5.82;;;;;;;11.77;96.42;100924.50;4934617;28;20047;-85
2021/09/29 06:43:51;;;;;;;11.90;5.82;;;;;;;11.80;96.36;100926.00;4935614;28;20090;-84
2021/09/29 06:46:17;;;;;;;9.77;5.03;;;;;;;11.81;96.41;100931.19;4937769;28;20137;-84
2021/09/29 06:48:42;;;;;;;11.55;5.93;;;;;;;11.85;96.35;100919.13;4943385;28;20051;-85
2021/09/29 06:51:08;;;;;;;10.10;5.30;;;;;;;11.90;96.09;100924.84;4948573;28;20083;-83
2021/09/29 06:53:33;;;;;;;11.82;5.35;;;;;;;11.91;96.00;100926.53;4948546;28;20097;-86
2021/09/29 06:56:05;;;;;;;10.68;5.63;;;;;;;11.95;95.83;100925.19;4946590;28;20051;-83
2021/09/29 06:58:31;;;;;;;8.18;4.55;;;;;;;12.02;95.45;100927.19;4947841;28;20094;-84
2021/09/29 07:00:56;;;;;;;10.35;4.93;;;;;;;12.04;95.66;100925.16;4947086;28;20043;-86
2021/09/29 07:03:22;;;;;;;10.07;4.72;;;;;;;12.05;95.55;100924.16;4944222;28;20119;-83
2021/09/29 07:05:48;;;;;;;8.52;4.60;;;;;;;12.07;95.54;100928.34;4935704;28;20055;-84
2021/09/29 07:08:13;;;;;;;14.43;5.05;;;;;;;12.10;95.94;100929.88;4941660;28;20332;-85
2021/09/29 07:10:39;;;;;;;8.13;4.00;;;;;;;12.12;95.78;100934.06;4939117;28;20063;-84
2021/09/29 07:13:04;;;;;;;10.15;4.53;;;;;;;12.14;95.82;100932.06;4939417;28;20414;-85
2021/09/29 07:15:30;;;;;;;12.13;4.68;;;;;;;12.18;96.37;100924.47;4937458;28;20079;-86
2021/09/29 07:17:57;;;;;;;12.05;5.07;;;;;;;12.14;96.99;100925.81;4935623;28;20052;-88
2021/09/29 07:20:23;;;;;;;10.95;5.40;;;;;;;12.13;97.83;100929.53;4937354;28;20122;-87
2021/09/29 07:22:48;;;;;;;12.25;5.50;;;;;;;12.10;98.43;100928.00;4938338;28;20417;-87
2021/09/29 07:25:15;;;;;;;10.30;4.60;;;;;;;12.05;99.61;100918.75;4943732;28;20047;-87
2021/09/29 07:27:40;;;;;;;11.38;5.47;;;;;;;12.04;99.33;100922.47;4944378;28;20051;-86
2021/09/29 07:30:06;;;;;;;11.98;5.70;;;;;;;12.00;100.00;100924.69;4938539;28;20528;-89
2021/09/29 07:32:33;;;;;;;9.35;5.38;;;;;;;11.96;100.00;100918.78;4933734;28;20051;-88
2021/09/29 07:34:58;;;;;;;9.98;5.95;;;;;;;11.97;100.00;100922.34;4939366;28;20517;-86
2021/09/29 07:37:24;;;;;;;17.30;6.75;;;;;;;12.00;100.00;100908.53;4933368;28;20127;-86
2021/09/29 07:39:51;;;;;;;9.88;5.90;;;;;;;11.93;100.00;100912.91;4926895;28;20052;-86
2021/09/29 07:42:17;;;;;;;12.48;6.35;;;;;;;11.91;100.00;100904.16;4924673;29;20039;-86
2021/09/29 07:44:42;;;;;;;11.32;6.50;;;;;;;11.90;100.00;100907.88;4926596;29;20047;-86
2021/09/29 07:47:08;;;;;;;17.17;6.72;;;;;;;11.94;100.00;100911.91;4925138;28;20059;-86
2021/09/29 07:49:33;;;;;;;15.77;7.93;;;;;;;11.84;100.00;100903.13;4927031;29;20059;-86
2021/09/29 07:51:59;;;;;;;13.10;7.07;;;;;;;11.87;100.00;100906.34;4927466;29;20048;-86
2021/09/29 07:54:26;;;;;;;15.15;7.55;;;;;;;11.94;100.00;100901.16;4941836;28;20074;-86
2021/09/29 07:56:52;;;;;;;14.88;7.05;;;;;;;11.92;100.00;100897.78;4910259;29;20448;-87
2021/09/29 07:59:18;;;;;;;11.52;6.90;;;;;;;11.95;100.00;100895.59;4926782;29;20132;-87
2021/09/29 08:01:43;;;;;;;15.13;8.00;;;;;;;11.96;100.00;100891.88;4929929;28;20566;-86
2021/09/29 08:04:11;;;;;;;16.27;8.52;;;;;;;12.02;100.00;100884.16;4937079;28;20493;-85
2021/09/29 08:06:36;;;;;;;16.30;8.02;;;;;;;12.10;100.00;100881.44;4941557;28;20060;-86
2021/09/29 08:09:03;;;;;;;16.83;7.53;;;;;;;12.16;100.00;100886.13;4939895;28;20495;-86
2021/09/29 08:11:29;;;;;;;14.23;7.85;;;;;;;12.22;100.00;100882.75;4939922;28;20130;-86
2021/09/29 08:13:54;;;;;;;13.43;7.38;;;;;;;12.26;100.00;100869.81;4939140;28;20134;-86
2021/09/29 08:16:20;;;;;;;12.80;7.32;;;;;;;12.32;100.00;100863.72;4927062;29;20050;-86
2021/09/29 08:18:45;;;;;;;14.52;7.55;;;;;;;12.38;100.00;100861.16;4937300;28;20055;-87
2021/09/29 08:21:16;;;;;;;13.32;7.38;;;;;;;12.42;100.00;100862.50;4936921;28;20051;-85
2021/09/29 08:23:45;;;;;;;14.20;7.95;;;;;;;12.46;100.00;100864.81;4933153;28;20100;-87
2021/09/29 08:41:49;;;;;;;12.18;6.20;;;;;;;12.76;100.00;100860.50;4935373;28;20051;-87
2021/09/29 08:49:25;;;;;;;15.43;6.47;;;;;;;12.90;100.00;100848.13;4927160;28;20532;-84
2021/09/29 08:54:56;;;;;;;12.57;6.35;;;;;;;13.02;100.00;100844.00;4943054;28;20553;-87
2021/09/29 08:57:39;;;;;;;12.95;6.75;;;;;;;13.00;100.00;100844.16;4941576;28;20039;-86
2021/09/29 09:16:37;;;;;;;11.00;6.53;;;;;;;12.83;100.00;100842.59;4946081;28;20082;-87
2021/09/29 09:19:05;;;;;;;11.10;6.00;;;;;;;12.83;100.00;100845.28;4959326;28;20063;-88
2021/09/29 09:21:33;;;;;;;14.80;7.88;;;;;;;12.87;100.00;100849.31;4938609;28;20058;-88
2021/09/29 09:23:59;;;;;;;15.13;7.50;;;;;;;12.92;100.00;100848.78;4957922;28;20055;-89
2021/09/29 09:26:28;;;;;;;11.48;6.22;;;;;;;12.85;100.00;100851.34;4956576;28;20086;-90
2021/09/29 09:29:06;;;;;;;10.05;5.95;;;;;;;12.83;100.00;100848.84;4939288;29;20062;-87
2021/09/29 09:31:32;;;;;;;12.27;6.25;;;;;;;12.76;100.00;100845.16;4953566;28;20047;-88
2021/09/29 09:34:05;;;;;;;8.13;4.97;;;;;;;12.71;100.00;100842.16;4965091;28;20141;-89
2021/09/29 09:36:34;;;;;;;11.65;6.15;;;;;;;12.69;100.00;100848.72;4962306;28;20070;-86
2021/09/29 09:39:05;;;;;;;13.23;6.72;;;;;;;12.64;100.00;100851.97;4964187;28;20079;-88
2021/09/29 09:41:31;;;;;;;12.52;7.70;;;;;;;12.65;100.00;100849.09;4950340;28;20062;-87
2021/09/29 09:44:03;;;;;;;11.77;7.22;;;;;;;12.55;100.00;100843.09;4954456;28;20122;-88
2021/09/29 09:46:29;;;;;;;14.38;8.55;;;;;;;12.54;100.00;100854.03;4927645;29;20312;-90
2021/09/29 09:49:05;;;;;;;12.27;7.70;;;;;;;12.54;100.00;100857.56;4943198;28;20079;-88
2021/09/29 09:51:33;;;;;;;13.35;7.68;;;;;;;12.54;100.00;100870.19;4957490;28;20047;-88
2021/09/29 09:53:59;;;;;;;13.25;7.20;;;;;;;12.52;100.00;100848.84;4945796;28;20055;-89
2021/09/29 09:56:30;;;;;;;8.68;5.60;;;;;;;12.52;100.00;100861.47;4947539;28;20117;-89
2021/09/29 09:58:57;;;;;;;11.30;5.68;;;;;;;12.49;100.00;100870.72;4937081;28;20051;-87
2021/09/29 10:01:29;;;;;;;9.52;5.32;;;;;;;12.47;100.00;100861.16;4943290;28;20829;-87
2021/09/29 10:04:06;;;;;;;10.52;4.93;;;;;;;12.45;100.00;100861.31;4942803;28;20333;-87
2021/09/29 10:06:31;;;;;;;9.13;5.03;;;;;;;12.48;100.00;100852.88;4945795;28;20047;-86
2021/09/29 10:09:02;;;;;;;8.27;4.90;;;;;;;12.53;100.00;100868.50;4944174;28;20047;-85
2021/09/29 10:11:36;;;;;;;8.50;4.97;;;;;;;12.57;100.00;100870.69;4950192;28;20426;-85
2021/09/29 10:27:57;;;;;;;9.45;5.22;;;;;;;12.63;100.00;100871.84;4935170;28;20086;-88
2021/09/29 10:30:34;;;;;;;6.13;4.28;;;;;;;12.62;100.00;100878.22;4909899;28;20387;-89
2021/09/29 10:33:03;;;;;;;7.70;4.47;;;;;;;12.62;100.00;100875.53;4938857;28;20051;-89
2021/09/29 11:28:04;;;;;;;7.50;5.88;;;;;;;11.94;100.00;100922.66;4900763;29;20080;-89
2021/09/29 11:30:46;;;;;;;8.38;5.78;;;;;;;11.93;100.00;100926.34;4903192;29;20051;-88
2021/09/29 11:33:56;;;;;;;;;;;;;;;;;;;;;
2021/09/29 12:10:27;;;;;;;5.05;3.67;;;;;;;11.64;100.00;101020.91;4905099;29;20140;-86
2021/09/29 12:12:53;;;;;;;4.55;3.10;;;;;;;11.61;100.00;101010.50;4915842;28;20557;-87
2021/09/29 12:15:20;;;;;;;5.65;3.20;;;;;;;11.62;100.00;101001.41;4881553;29;20056;-86
2021/09/29 12:17:50;;;;;;;4.70;2.88;;;;;;;11.52;100.00;101002.41;4879393;29;20052;-87
2021/09/29 12:20:20;;;;;;;4.63;3.08;;;;;;;11.45;100.00;101012.16;4891110;29;20048;-87
2021/09/29 12:22:56;;;;;;;3.47;2.50;;;;;;;11.37;100.00;101030.94;4903846;29;20147;-85
2021/09/29 12:25:36;;;;;;;4.57;3.00;;;;;;;11.35;100.00;101035.63;4904449;29;20063;-85
2021/09/29 12:28:33;;;;;;;5.28;3.45;;;;;;;11.35;100.00;101032.94;4901397;29;20484;-88
2021/09/29 12:31:54;;;;;;;4.63;2.80;;;;;;;11.22;100.00;101029.88;4905597;29;20055;-87
2021/09/29 12:33:59;;;;;;;3.72;2.72;;;;;;;11.20;100.00;101050.69;4863758;29;20670;-86
2021/09/29 12:36:33;;;;;;;3.90;2.10;;;;;;;11.10;100.00;101045.44;4881836;29;20060;-85
2021/09/29 12:39:00;;;;;;;3.45;1.83;;;;;;;11.01;100.00;101028.44;4902540;29;20078;-85
2021/09/29 12:41:29;;;;;;;4.95;1.90;;;;;;;10.96;100.00;101046.91;4952256;28;20047;-87
2021/09/29 12:44:13;;;;;;;3.70;1.90;;;;;;;10.93;100.00;101059.78;4950729;28;20062;-85
2021/09/29 12:46:40;;;;;;;2.92;1.60;;;;;;;10.86;100.00;101054.22;4957451;28;20134;-86
2021/09/29 12:49:12;;;;;;;2.25;1.50;;;;;;;10.78;100.00;101063.06;4959434;28;20066;-87
2021/09/29 12:51:46;;;;;;;2.88;1.40;;;;;;;10.77;100.00;101061.41;4939500;28;20086;-86
2021/09/29 12:54:17;;;;;;;2.53;1.80;;;;;;;10.78;100.00;101055.00;4932132;28;20054;-85
2021/09/29 12:56:43;;;;;;;3.22;2.25;;;;;;;10.78;100.00;101051.50;4929783;28;20056;-85
2021/09/29 12:59:08;;;;;;;3.83;1.98;;;;;;;10.80;100.00;101070.97;4942626;28;20055;-85
2021/09/29 13:01:34;;;;;;;3.85;2.30;;;;;;;10.80;100.00;101068.28;4926761;28;20052;-88
2021/09/29 13:03:59;;;;;;;3.40;2.10;;;;;;;10.73;100.00;101064.53;4927048;28;20055;-85
2021/09/29 13:06:24;;;;;;;4.38;2.80;;;;;;;10.77;100.00;101064.09;4921151;28;20135;-86
2021/09/29 13:08:50;;;;;;;3.95;2.70;;;;;;;10.80;100.00;101065.59;4933187;28;20052;-86
2021/09/29 13:11:15;;;;;;;5.78;4.00;;;;;;;10.82;100.00;101072.50;4934976;28;20111;-86
2021/09/29 13:13:41;;;;;;;5.03;3.42;;;;;;;10.89;100.00;101086.13;4929068;29;20070;-89
2021/09/29 13:16:07;;;;;;;5.68;4.15;;;;;;;10.94;100.00;101083.81;4946558;28;20054;-87
2021/09/29 13:18:56;;;;;;;6.38;4.00;;;;;;;10.96;100.00;101089.88;4958651;28;20054;-86
2021/09/29 13:23:59;;;;;;;5.15;3.55;;;;;;;10.98;100.00;101078.97;4959631;28;20050;-85
2021/09/29 13:37:17;;;;;;;4.10;2.33;;;;;;;10.91;100.00;101089.50;4948070;28;20182;-86
2021/09/29 13:39:44;;;;;;;5.50;2.08;;;;;;;10.86;100.00;101094.50;4953442;28;20126;-85
2021/09/29 13:42:10;;;;;;;3.80;1.90;;;;;;;10.87;100.00;101093.50;4960988;28;20050;-85
2021/09/29 13:44:35;;;;;;;3.35;2.17;;;;;;;10.92;100.00;101101.91;4963291;28;20413;-86
2021/09/29 13:47:01;;;;;;;4.57;2.58;;;;;;;10.93;100.00;101108.13;4965566;28;20051;-86
2021/09/29 13:49:27;;;;;;;6.25;3.22;;;;;;;10.91;100.00;101129.78;4965678;28;20109;-85
2021/09/29 13:51:54;;;;;;;7.43;3.95;;;;;;;11.00;100.00;101136.88;4961514;28;20131;-86